Terminal Aerodrome Forecast
Issued by NWS Memphis, TN

Home | Current Version | Previous Version | Text Only | Print | Product List | Glossary On
Versions: 1 2 3 4 5 6 7 8 9 10 11 12 13 14 15 16 17 18 19 20 21 22 23 24 25 26 27
000
FTUS44 KMEG 010900 AAA
TAFMEM
TAF AMD
KMEM 010904Z 0109/0206 05004KT P6SM VCSH OVC100
      TEMPO 0109/0112 -SHRA SCT060
     FM011500 05006KT P6SM VCSH BKN060 BKN100
     FM020100 03005KT P6SM SCT060 BKN100=

USA.gov is the U.S. government's official web portal to all federal, state and local government web resources and services.